sensor_id;sensor_type;location;lat;lon;timestamp;pressure;altitude;pressure_sealevel;temperature;humidity
58056;BME280;53159;55.152;36.614;2022-07-03T00:00:15;99755.03;;;14.63;89.00
58056;BME280;53159;55.152;36.614;2022-07-03T00:02:41;99761.13;;;14.64;88.35
58056;BME280;53159;55.152;36.614;2022-07-03T00:05:08;99766.34;;;14.64;88.42
58056;BME280;53159;55.152;36.614;2022-07-03T00:07:37;99764.59;;;14.63;88.73
58056;BME280;53159;55.152;36.614;2022-07-03T00:10:05;99775.00;;;14.60;90.28
58056;BME280;53159;55.152;36.614;2022-07-03T00:12:34;99767.88;;;14.45;93.77
58056;BME280;53159;55.152;36.614;2022-07-03T00:15:01;99766.00;;;14.33;96.74
58056;BME280;53159;55.152;36.614;2022-07-03T00:17:29;99766.84;;;14.29;96.27
58056;BME280;53159;55.152;36.614;2022-07-03T00:19:55;99769.47;;;14.30;94.07
58056;BME280;53159;55.152;36.614;2022-07-03T00:22:25;99754.75;;;14.37;91.98
58056;BME280;53159;55.152;36.614;2022-07-03T00:24:54;99754.81;;;14.43;91.71
58056;BME280;53159;55.152;36.614;2022-07-03T00:27:32;99756.59;;;14.47;92.48
58056;BME280;53159;55.152;36.614;2022-07-03T00:30:01;99758.34;;;14.47;93.38
58056;BME280;53159;55.152;36.614;2022-07-03T00:32:29;99756.47;;;14.37;96.35
58056;BME280;53159;55.152;36.614;2022-07-03T00:34:57;99752.09;;;14.31;98.08
58056;BME280;53159;55.152;36.614;2022-07-03T00:37:27;99743.28;;;14.23;99.44
58056;BME280;53159;55.152;36.614;2022-07-03T00:39:54;99750.19;;;14.17;98.77
58056;BME280;53159;55.152;36.614;2022-07-03T00:42:21;99751.00;;;14.12;97.56
58056;BME280;53159;55.152;36.614;2022-07-03T00:44:56;99745.81;;;14.15;95.14
58056;BME280;53159;55.152;36.614;2022-07-03T00:47:24;99754.63;;;14.23;94.58
58056;BME280;53159;55.152;36.614;2022-07-03T00:49:56;99766.69;;;14.15;97.52
58056;BME280;53159;55.152;36.614;2022-07-03T00:52:29;99766.69;;;14.13;99.15
58056;BME280;53159;55.152;36.614;2022-07-03T00:54:58;99766.63;;;14.07;100.00
58056;BME280;53159;55.152;36.614;2022-07-03T00:57:27;99766.63;;;14.09;100.00
58056;BME280;53159;55.152;36.614;2022-07-03T00:59:56;99756.13;;;14.02;100.00
58056;BME280;53159;55.152;36.614;2022-07-03T01:11:48;99749.06;;;13.94;100.00
58056;BME280;53159;55.152;36.614;2022-07-03T01:17:05;99751.13;;;14.23;94.16
58056;BME280;53159;55.152;36.614;2022-07-03T01:19:36;99755.63;;;14.36;91.50
58056;BME280;53159;55.152;36.614;2022-07-03T01:22:29;99747.06;;;14.52;90.80
58056;BME280;53159;55.152;36.614;2022-07-03T01:25:23;99748.88;;;14.58;91.16
58056;BME280;53159;55.152;36.614;2022-07-03T01:28:13;99743.78;;;14.69;91.66
58056;BME280;53159;55.152;36.614;2022-07-03T01:33:16;99744.81;;;14.90;87.05
58056;BME280;53159;55.152;36.614;2022-07-03T01:36:04;99765.75;;;14.91;88.57
58056;BME280;53159;55.152;36.614;2022-07-03T01:38:34;99756.19;;;14.93;87.12
58056;BME280;53159;55.152;36.614;2022-07-03T01:41:04;99745.81;;;15.01;88.82
58056;BME280;53159;55.152;36.614;2022-07-03T01:43:36;99774.31;;;14.75;89.74
58056;BME280;53159;55.152;36.614;2022-07-03T01:46:03;99796.09;;;14.75;88.00
58056;BME280;53159;55.152;36.614;2022-07-03T01:48:31;99797.81;;;14.73;87.87
58056;BME280;53159;55.152;36.614;2022-07-03T01:50:59;99763.03;;;14.79;87.74
58056;BME280;53159;55.152;36.614;2022-07-03T01:53:30;99781.41;;;14.90;87.67
58056;BME280;53159;55.152;36.614;2022-07-03T01:55:59;99759.69;;;14.94;90.34
58056;BME280;53159;55.152;36.614;2022-07-03T01:58:27;99781.41;;;14.87;91.51
58056;BME280;53159;55.152;36.614;2022-07-03T02:01:02;99765.72;;;14.90;92.75
58056;BME280;53159;55.152;36.614;2022-07-03T02:03:34;99770.91;;;14.83;95.30
58056;BME280;53159;55.152;36.614;2022-07-03T02:06:05;99756.91;;;14.75;97.66
58056;BME280;53159;55.152;36.614;2022-07-03T02:09:05;99750.03;;;14.85;99.27
58056;BME280;53159;55.152;36.614;2022-07-03T02:11:38;99735.22;;;14.86;98.36
58056;BME280;53159;55.152;36.614;2022-07-03T02:14:13;99716.13;;;14.91;97.15
58056;BME280;53159;55.152;36.614;2022-07-03T02:22:19;99720.59;;;15.08;92.51
58056;BME280;53159;55.152;36.614;2022-07-03T02:24:47;99711.94;;;15.15;90.53
58056;BME280;53159;55.152;36.614;2022-07-03T02:27:22;99703.25;;;15.22;90.82
58056;BME280;53159;55.152;36.614;2022-07-03T02:29:54;99704.19;;;15.34;89.82
58056;BME280;53159;55.152;36.614;2022-07-03T02:32:23;99696.34;;;15.35;88.71
58056;BME280;53159;55.152;36.614;2022-07-03T02:35:27;99703.41;;;15.48;86.81
58056;BME280;53159;55.152;36.614;2022-07-03T02:38:10;99694.72;;;15.57;86.02
58056;BME280;53159;55.152;36.614;2022-07-03T02:40:58;99686.91;;;15.63;85.16
58056;BME280;53159;55.152;36.614;2022-07-03T02:46:38;99688.72;;;15.82;83.01
58056;BME280;53159;55.152;36.614;2022-07-03T02:51:51;99680.09;;;16.14;82.32
58056;BME280;53159;55.152;36.614;2022-07-03T02:54:24;99676.66;;;16.38;80.05
58056;BME280;53159;55.152;36.614;2022-07-03T03:10:39;99666.81;;;19.07;67.75
58056;BME280;53159;55.152;36.614;2022-07-03T03:13:09;99666.34;;;19.50;66.58
58056;BME280;53159;55.152;36.614;2022-07-03T03:15:41;99672.91;;;19.88;65.11
58056;BME280;53159;55.152;36.614;2022-07-03T03:18:22;99671.56;;;20.23;63.04
58056;BME280;53159;55.152;36.614;2022-07-03T03:20:58;99667.63;;;20.49;61.79
58056;BME280;53159;55.152;36.614;2022-07-03T03:23:48;99659.97;;;20.88;60.61
58056;BME280;53159;55.152;36.614;2022-07-03T03:26:19;99664.66;;;21.22;59.58
58056;BME280;53159;55.152;36.614;2022-07-03T03:28:49;99666.94;;;21.41;58.48
58056;BME280;53159;55.152;36.614;2022-07-03T03:31:20;99668.28;;;21.15;59.55
58056;BME280;53159;55.152;36.614;2022-07-03T03:33:49;99658.41;;;20.78;60.49
58056;BME280;53159;55.152;36.614;2022-07-03T03:36:18;99663.28;;;20.46;61.49
58056;BME280;53159;55.152;36.614;2022-07-03T03:38:45;99671.34;;;20.37;62.55
58056;BME280;53159;55.152;36.614;2022-07-03T03:41:13;99677.47;;;20.38;63.04
58056;BME280;53159;55.152;36.614;2022-07-03T03:43:40;99676.91;;;20.19;64.04
58056;BME280;53159;55.152;36.614;2022-07-03T03:46:07;99672.47;;;20.19;63.26
58056;BME280;53159;55.152;36.614;2022-07-03T03:48:39;99668.00;;;20.24;63.01
58056;BME280;53159;55.152;36.614;2022-07-03T03:51:05;99675.56;;;20.48;63.51
58056;BME280;53159;55.152;36.614;2022-07-03T03:53:34;99674.72;;;21.00;61.03
58056;BME280;53159;55.152;36.614;2022-07-03T03:56:08;99668.84;;;21.33;59.83
58056;BME280;53159;55.152;36.614;2022-07-03T03:58:38;99665.78;;;21.97;58.00
58056;BME280;53159;55.152;36.614;2022-07-03T04:01:07;99664.00;;;22.35;56.42
58056;BME280;53159;55.152;36.614;2022-07-03T04:03:34;99657.72;;;22.78;53.95
58056;BME280;53159;55.152;36.614;2022-07-03T04:06:01;99658.63;;;23.10;52.78
58056;BME280;53159;55.152;36.614;2022-07-03T04:08:30;99660.00;;;23.27;50.92
58056;BME280;53159;55.152;36.614;2022-07-03T04:10:58;99655.25;;;23.38;51.09
58056;BME280;53159;55.152;36.614;2022-07-03T04:13:26;99656.16;;;23.37;50.21
58056;BME280;53159;55.152;36.614;2022-07-03T04:15:54;99655.19;;;23.71;50.24
58056;BME280;53159;55.152;36.614;2022-07-03T04:18:21;99654.56;;;23.93;49.11
58056;BME280;53159;55.152;36.614;2022-07-03T04:20:48;99654.84;;;23.83;47.74
58056;BME280;53159;55.152;36.614;2022-07-03T04:23:15;99644.13;;;23.57;49.31
58056;BME280;53159;55.152;36.614;2022-07-03T04:25:43;99646.84;;;23.54;49.71
58056;BME280;53159;55.152;36.614;2022-07-03T04:28:09;99650.91;;;23.97;48.51
58056;BME280;53159;55.152;36.614;2022-07-03T04:30:37;99646.53;;;23.96;47.81
58056;BME280;53159;55.152;36.614;2022-07-03T04:33:03;99649.94;;;24.28;48.03
58056;BME280;53159;55.152;36.614;2022-07-03T04:35:31;99652.16;;;24.42;47.42
58056;BME280;53159;55.152;36.614;2022-07-03T04:37:58;99649.78;;;24.88;46.67
58056;BME280;53159;55.152;36.614;2022-07-03T04:40:24;99644.41;;;24.89;46.13
58056;BME280;53159;55.152;36.614;2022-07-03T04:42:52;99655.44;;;25.02;46.14
58056;BME280;53159;55.152;36.614;2022-07-03T04:45:19;99652.97;;;24.98;45.61
58056;BME280;53159;55.152;36.614;2022-07-03T04:47:46;99653.81;;;24.98;45.94
58056;BME280;53159;55.152;36.614;2022-07-03T04:50:15;99656.84;;;25.39;45.74
58056;BME280;53159;55.152;36.614;2022-07-03T04:52:43;99653.66;;;25.53;45.44
58056;BME280;53159;55.152;36.614;2022-07-03T04:55:10;99652.31;;;25.89;44.69
58056;BME280;53159;55.152;36.614;2022-07-03T04:57:38;99647.75;;;26.15;44.96
58056;BME280;53159;55.152;36.614;2022-07-03T05:00:06;99645.50;;;25.82;44.60
58056;BME280;53159;55.152;36.614;2022-07-03T05:02:34;99659.03;;;25.52;44.49
58056;BME280;53159;55.152;36.614;2022-07-03T05:05:01;99648.25;;;25.79;44.76
58056;BME280;53159;55.152;36.614;2022-07-03T05:07:30;99650.19;;;25.97;45.49
58056;BME280;53159;55.152;36.614;2022-07-03T05:09:58;99640.34;;;26.23;45.35
58056;BME280;53159;55.152;36.614;2022-07-03T05:12:27;99642.91;;;26.26;44.38
58056;BME280;53159;55.152;36.614;2022-07-03T05:14:53;99631.00;;;26.78;43.17
58056;BME280;53159;55.152;36.614;2022-07-03T05:17:20;99632.41;;;26.86;43.70
58056;BME280;53159;55.152;36.614;2022-07-03T05:19:47;99626.81;;;27.13;44.00
58056;BME280;53159;55.152;36.614;2022-07-03T05:22:14;99630.09;;;27.39;43.78
58056;BME280;53159;55.152;36.614;2022-07-03T05:24:43;99633.41;;;27.25;42.92
58056;BME280;53159;55.152;36.614;2022-07-03T05:27:11;99630.94;;;27.00;42.90
58056;BME280;53159;55.152;36.614;2022-07-03T05:29:37;99630.09;;;26.99;43.78
58056;BME280;53159;55.152;36.614;2022-07-03T05:32:04;99622.94;;;27.21;43.41
58056;BME280;53159;55.152;36.614;2022-07-03T05:34:31;99626.03;;;27.51;43.19
58056;BME280;53159;55.152;36.614;2022-07-03T05:36:58;99625.97;;;27.72;43.35
58056;BME280;53159;55.152;36.614;2022-07-03T05:39:25;99630.13;;;27.58;43.00
58056;BME280;53159;55.152;36.614;2022-07-03T05:42:02;99624.97;;;27.55;42.74
58056;BME280;53159;55.152;36.614;2022-07-03T05:44:29;99632.31;;;26.67;43.38
58056;BME280;53159;55.152;36.614;2022-07-03T05:46:57;99636.16;;;26.60;45.50
58056;BME280;53159;55.152;36.614;2022-07-03T05:49:23;99631.75;;;26.38;44.76
58056;BME280;53159;55.152;36.614;2022-07-03T05:51:51;99618.50;;;26.80;44.62
58056;BME280;53159;55.152;36.614;2022-07-03T05:54:19;99628.97;;;26.84;45.80
58056;BME280;53159;55.152;36.614;2022-07-03T05:57:05;99621.97;;;26.82;45.54
58056;BME280;53159;55.152;36.614;2022-07-03T05:59:33;99622.09;;;26.79;45.94
58056;BME280;53159;55.152;36.614;2022-07-03T06:02:00;99622.78;;;26.41;45.45
58056;BME280;53159;55.152;36.614;2022-07-03T06:04:27;99621.97;;;26.17;46.34
58056;BME280;53159;55.152;36.614;2022-07-03T06:06:54;99630.38;;;26.28;46.69
58056;BME280;53159;55.152;36.614;2022-07-03T06:09:23;99625.50;;;25.95;48.09
58056;BME280;53159;55.152;36.614;2022-07-03T06:11:50;99634.72;;;26.09;49.05
58056;BME280;53159;55.152;36.614;2022-07-03T06:14:16;99628.06;;;25.74;47.95
58056;BME280;53159;55.152;36.614;2022-07-03T06:16:44;99629.81;;;25.74;48.93
58056;BME280;53159;55.152;36.614;2022-07-03T06:19:10;99636.16;;;25.22;51.39
58056;BME280;53159;55.152;36.614;2022-07-03T06:21:37;99631.25;;;25.35;52.45
58056;BME280;53159;55.152;36.614;2022-07-03T06:24:04;99634.53;;;25.67;52.01
58056;BME280;53159;55.152;36.614;2022-07-03T06:26:31;99633.69;;;25.65;51.34
58056;BME280;53159;55.152;36.614;2022-07-03T06:28:57;99627.31;;;25.71;51.28
58056;BME280;53159;55.152;36.614;2022-07-03T06:31:24;99625.84;;;25.86;52.54
58056;BME280;53159;55.152;36.614;2022-07-03T06:33:52;99622.59;;;25.78;53.58
58056;BME280;53159;55.152;36.614;2022-07-03T06:36:19;99624.72;;;25.69;53.32
58056;BME280;53159;55.152;36.614;2022-07-03T06:38:47;99623.88;;;25.20;53.70
58056;BME280;53159;55.152;36.614;2022-07-03T06:41:13;99626.84;;;25.34;55.12
58056;BME280;53159;55.152;36.614;2022-07-03T06:43:40;99620.03;;;25.52;55.46
58056;BME280;53159;55.152;36.614;2022-07-03T06:46:07;99613.38;;;25.40;54.45
58056;BME280;53159;55.152;36.614;2022-07-03T06:48:35;99620.25;;;25.46;54.69
58056;BME280;53159;55.152;36.614;2022-07-03T06:51:02;99614.34;;;25.38;54.63
58056;BME280;53159;55.152;36.614;2022-07-03T06:53:31;99619.34;;;25.47;55.03
58056;BME280;53159;55.152;36.614;2022-07-03T06:55:57;99614.31;;;25.63;55.56
58056;BME280;53159;55.152;36.614;2022-07-03T06:58:24;99622.53;;;25.57;56.19
58056;BME280;53159;55.152;36.614;2022-07-03T07:00:50;99622.84;;;25.71;55.51
58056;BME280;53159;55.152;36.614;2022-07-03T07:03:17;99618.72;;;25.86;56.82
58056;BME280;53159;55.152;36.614;2022-07-03T07:05:44;99613.78;;;25.99;56.99
58056;BME280;53159;55.152;36.614;2022-07-03T07:08:11;99613.31;;;26.12;57.36
58056;BME280;53159;55.152;36.614;2022-07-03T07:10:39;99609.84;;;26.10;55.86
58056;BME280;53159;55.152;36.614;2022-07-03T07:13:08;99617.00;;;25.85;55.99
58056;BME280;53159;55.152;36.614;2022-07-03T07:15:35;99615.44;;;25.80;56.60
58056;BME280;53159;55.152;36.614;2022-07-03T07:18:01;99615.28;;;25.84;56.87
58056;BME280;53159;55.152;36.614;2022-07-03T07:20:29;99618.44;;;25.94;56.82
58056;BME280;53159;55.152;36.614;2022-07-03T07:22:56;99609.81;;;25.87;56.99
58056;BME280;53159;55.152;36.614;2022-07-03T07:25:25;99609.63;;;25.92;57.97
58056;BME280;53159;55.152;36.614;2022-07-03T07:27:53;99609.88;;;25.86;56.98
58056;BME280;53159;55.152;36.614;2022-07-03T07:30:20;99611.81;;;26.04;57.98
58056;BME280;53159;55.152;36.614;2022-07-03T07:32:48;99613.28;;;25.89;58.17
58056;BME280;53159;55.152;36.614;2022-07-03T07:35:16;99610.75;;;26.10;58.95
58056;BME280;53159;55.152;36.614;2022-07-03T07:37:44;99616.03;;;25.88;57.56
58056;BME280;53159;55.152;36.614;2022-07-03T07:40:11;99620.41;;;25.89;58.05
58056;BME280;53159;55.152;36.614;2022-07-03T07:42:39;99612.91;;;25.99;58.35
58056;BME280;53159;55.152;36.614;2022-07-03T07:45:07;99607.84;;;26.16;59.50
58056;BME280;53159;55.152;36.614;2022-07-03T07:47:34;99619.13;;;26.21;59.78
58056;BME280;53159;55.152;36.614;2022-07-03T07:50:03;99614.06;;;26.15;58.59
58056;BME280;53159;55.152;36.614;2022-07-03T07:52:30;99611.91;;;26.25;58.55
58056;BME280;53159;55.152;36.614;2022-07-03T07:54:58;99609.03;;;26.30;58.34
58056;BME280;53159;55.152;36.614;2022-07-03T07:57:25;99612.50;;;26.32;57.54
58056;BME280;53159;55.152;36.614;2022-07-03T07:59:52;99612.56;;;26.30;58.54
58056;BME280;53159;55.152;36.614;2022-07-03T08:02:19;99618.41;;;26.18;57.64
58056;BME280;53159;55.152;36.614;2022-07-03T08:05:07;99609.91;;;26.30;58.92
58056;BME280;53159;55.152;36.614;2022-07-03T08:07:53;99610.78;;;26.31;58.51
58056;BME280;53159;55.152;36.614;2022-07-03T08:10:19;99608.09;;;26.31;59.00
58056;BME280;53159;55.152;36.614;2022-07-03T08:12:46;99616.06;;;26.32;57.49
58056;BME280;53159;55.152;36.614;2022-07-03T08:15:15;99603.03;;;26.25;57.11
58056;BME280;53159;55.152;36.614;2022-07-03T08:17:43;99610.91;;;26.28;58.90
58056;BME280;53159;55.152;36.614;2022-07-03T08:20:13;99607.41;;;26.48;60.10
58056;BME280;53159;55.152;36.614;2022-07-03T08:22:40;99606.28;;;26.53;58.63
58056;BME280;53159;55.152;36.614;2022-07-03T08:25:07;99603.31;;;26.61;58.29
58056;BME280;53159;55.152;36.614;2022-07-03T08:27:34;99609.88;;;26.52;58.67
58056;BME280;53159;55.152;36.614;2022-07-03T08:30:01;99615.88;;;26.58;58.80
58056;BME280;53159;55.152;36.614;2022-07-03T08:32:29;99612.53;;;26.52;55.97
58056;BME280;53159;55.152;36.614;2022-07-03T08:34:57;99601.31;;;26.66;58.32
58056;BME280;53159;55.152;36.614;2022-07-03T08:37:24;99607.13;;;26.76;57.92
58056;BME280;53159;55.152;36.614;2022-07-03T08:39:52;99608.72;;;26.80;58.84
58056;BME280;53159;55.152;36.614;2022-07-03T08:42:19;99605.13;;;26.81;58.58
58056;BME280;53159;55.152;36.614;2022-07-03T08:44:46;99604.66;;;26.92;58.13
58056;BME280;53159;55.152;36.614;2022-07-03T08:47:18;99602.19;;;26.67;56.65
58056;BME280;53159;55.152;36.614;2022-07-03T08:49:46;99602.66;;;26.77;58.06
58056;BME280;53159;55.152;36.614;2022-07-03T08:52:14;99603.19;;;26.85;59.41
58056;BME280;53159;55.152;36.614;2022-07-03T08:54:42;99599.69;;;26.84;59.79
58056;BME280;53159;55.152;36.614;2022-07-03T08:57:09;99593.44;;;26.85;58.52
58056;BME280;53159;55.152;36.614;2022-07-03T08:59:38;99596.59;;;26.94;57.22
58056;BME280;53159;55.152;36.614;2022-07-03T09:02:06;99598.72;;;27.06;56.99
58056;BME280;53159;55.152;36.614;2022-07-03T09:04:34;99591.72;;;27.03;55.94
58056;BME280;53159;55.152;36.614;2022-07-03T09:07:01;99598.88;;;27.03;55.41
58056;BME280;53159;55.152;36.614;2022-07-03T09:09:29;99599.44;;;27.10;55.13
58056;BME280;53159;55.152;36.614;2022-07-03T09:11:55;99594.00;;;27.13;54.80
58056;BME280;53159;55.152;36.614;2022-07-03T09:14:25;99588.31;;;27.21;56.48
58056;BME280;53159;55.152;36.614;2022-07-03T09:16:53;99583.91;;;27.19;55.37
58056;BME280;53159;55.152;36.614;2022-07-03T09:22:25;99589.97;;;27.23;54.90
58056;BME280;53159;55.152;36.614;2022-07-03T09:24:54;99586.09;;;27.30;53.69
58056;BME280;53159;55.152;36.614;2022-07-03T09:27:23;99591.75;;;27.43;53.04
58056;BME280;53159;55.152;36.614;2022-07-03T09:30:07;99584.09;;;27.55;52.49
58056;BME280;53159;55.152;36.614;2022-07-03T09:35:23;99582.06;;;27.22;52.41
58056;BME280;53159;55.152;36.614;2022-07-03T09:37:52;99579.69;;;27.34;54.64
58056;BME280;53159;55.152;36.614;2022-07-03T09:40:26;99589.00;;;27.45;53.85
58056;BME280;53159;55.152;36.614;2022-07-03T09:43:04;99585.06;;;27.54;51.37
58056;BME280;53159;55.152;36.614;2022-07-03T09:45:54;99582.28;;;27.74;53.16
58056;BME280;53159;55.152;36.614;2022-07-03T09:48:25;99580.84;;;27.86;51.42
58056;BME280;53159;55.152;36.614;2022-07-03T09:51:20;99574.84;;;28.00;52.27
58056;BME280;53159;55.152;36.614;2022-07-03T09:53:57;99572.25;;;27.98;52.41
58056;BME280;53159;55.152;36.614;2022-07-03T09:56:34;99568.69;;;27.98;51.36
58056;BME280;53159;55.152;36.614;2022-07-03T09:59:10;99571.81;;;28.08;51.00
58056;BME280;53159;55.152;36.614;2022-07-03T10:01:40;99572.84;;;28.05;52.27
58056;BME280;53159;55.152;36.614;2022-07-03T10:04:16;99573.19;;;27.97;50.93
58056;BME280;53159;55.152;36.614;2022-07-03T10:09:20;99571.06;;;28.23;53.08
58056;BME280;53159;55.152;36.614;2022-07-03T10:11:48;99571.16;;;28.22;50.76
58056;BME280;53159;55.152;36.614;2022-07-03T10:14:17;99572.09;;;28.38;53.16
58056;BME280;53159;55.152;36.614;2022-07-03T10:16:48;99565.25;;;28.33;49.35
58056;BME280;53159;55.152;36.614;2022-07-03T10:19:22;99559.47;;;28.42;49.68
58056;BME280;53159;55.152;36.614;2022-07-03T10:21:59;99554.91;;;28.61;50.17
58056;BME280;53159;55.152;36.614;2022-07-03T10:24:29;99560.56;;;28.55;48.32
58056;BME280;53159;55.152;36.614;2022-07-03T10:26:58;99565.19;;;28.52;47.65
58056;BME280;53159;55.152;36.614;2022-07-03T10:29:27;99559.69;;;28.55;48.95
58056;BME280;53159;55.152;36.614;2022-07-03T10:31:57;99554.28;;;28.56;47.47
58056;BME280;53159;55.152;36.614;2022-07-03T10:34:25;99552.38;;;28.58;48.97
58056;BME280;53159;55.152;36.614;2022-07-03T10:37:01;99553.06;;;28.62;47.00
58056;BME280;53159;55.152;36.614;2022-07-03T10:42:25;99558.03;;;28.35;44.21
58056;BME280;53159;55.152;36.614;2022-07-03T10:45:14;99557.59;;;28.44;45.05
58056;BME280;53159;55.152;36.614;2022-07-03T10:50:20;99556.47;;;28.66;45.37
58056;BME280;53159;55.152;36.614;2022-07-03T10:52:49;99556.88;;;28.58;45.06
58056;BME280;53159;55.152;36.614;2022-07-03T10:55:16;99546.81;;;28.63;46.80
58056;BME280;53159;55.152;36.614;2022-07-03T10:58:07;99551.13;;;28.66;45.93
58056;BME280;53159;55.152;36.614;2022-07-03T11:00:53;99547.44;;;28.68;45.71
58056;BME280;53159;55.152;36.614;2022-07-03T11:03:59;99538.31;;;28.55;43.99
58056;BME280;53159;55.152;36.614;2022-07-03T11:09:11;99538.88;;;28.79;44.47
58056;BME280;53159;55.152;36.614;2022-07-03T11:11:45;99530.16;;;28.75;43.94
58056;BME280;53159;55.152;36.614;2022-07-03T11:14:28;99554.09;;;28.59;44.27
58056;BME280;53159;55.152;36.614;2022-07-03T11:17:19;99541.09;;;28.71;43.56
58056;BME280;53159;55.152;36.614;2022-07-03T11:19:50;99543.97;;;28.84;43.62
58056;BME280;53159;55.152;36.614;2022-07-03T11:23:07;99536.06;;;28.98;43.34
58056;BME280;53159;55.152;36.614;2022-07-03T11:28:47;99532.66;;;28.96;43.53
58056;BME280;53159;55.152;36.614;2022-07-03T11:33:43;99527.31;;;28.96;42.62
58056;BME280;53159;55.152;36.614;2022-07-03T11:39:11;99537.31;;;29.08;40.79
58056;BME280;53159;55.152;36.614;2022-07-03T11:44:07;99537.28;;;28.92;40.22
58056;BME280;53159;55.152;36.614;2022-07-03T11:46:38;99531.16;;;28.90;40.71
58056;BME280;53159;55.152;36.614;2022-07-03T11:49:10;99543.56;;;28.91;41.23
58056;BME280;53159;55.152;36.614;2022-07-03T11:51:38;99533.28;;;28.66;40.04
58056;BME280;53159;55.152;36.614;2022-07-03T11:54:06;99541.94;;;28.54;41.11
58056;BME280;53159;55.152;36.614;2022-07-03T11:56:34;99530.81;;;28.28;41.19
58056;BME280;53159;55.152;36.614;2022-07-03T11:59:05;99531.53;;;28.31;40.65
58056;BME280;53159;55.152;36.614;2022-07-03T12:01:34;99525.59;;;28.42;41.05
58056;BME280;53159;55.152;36.614;2022-07-03T12:04:11;99523.78;;;28.60;40.07
58056;BME280;53159;55.152;36.614;2022-07-03T12:09:28;99526.69;;;28.73;41.17
58056;BME280;53159;55.152;36.614;2022-07-03T12:12:09;99524.59;;;28.80;40.08
58056;BME280;53159;55.152;36.614;2022-07-03T12:14:48;99517.50;;;28.79;37.85
58056;BME280;53159;55.152;36.614;2022-07-03T12:17:21;99527.97;;;28.84;37.94
58056;BME280;53159;55.152;36.614;2022-07-03T12:19:50;99504.16;;;28.79;38.62
58056;BME280;53159;55.152;36.614;2022-07-03T12:22:34;99509.16;;;28.85;39.79
58056;BME280;53159;55.152;36.614;2022-07-03T12:25:07;99511.00;;;29.01;41.29
58056;BME280;53159;55.152;36.614;2022-07-03T12:27:40;99513.06;;;28.95;39.73
58056;BME280;53159;55.152;36.614;2022-07-03T12:30:09;99519.34;;;28.94;39.79
58056;BME280;53159;55.152;36.614;2022-07-03T12:32:38;99524.13;;;29.05;39.53
58056;BME280;53159;55.152;36.614;2022-07-03T12:35:07;99514.22;;;29.07;38.99
58056;BME280;53159;55.152;36.614;2022-07-03T12:37:38;99519.72;;;29.04;38.55
58056;BME280;53159;55.152;36.614;2022-07-03T12:40:09;99520.34;;;29.09;37.78
58056;BME280;53159;55.152;36.614;2022-07-03T12:42:56;99512.41;;;29.08;38.95
58056;BME280;53159;55.152;36.614;2022-07-03T12:45:28;99509.56;;;29.11;38.77
58056;BME280;53159;55.152;36.614;2022-07-03T12:48:03;99508.63;;;29.12;39.54
58056;BME280;53159;55.152;36.614;2022-07-03T12:50:51;99500.09;;;29.21;40.62
58056;BME280;53159;55.152;36.614;2022-07-03T12:53:30;99507.75;;;29.27;40.08
58056;BME280;53159;55.152;36.614;2022-07-03T12:56:07;99506.31;;;29.22;39.84
58056;BME280;53159;55.152;36.614;2022-07-03T12:58:38;99498.69;;;29.14;38.78
58056;BME280;53159;55.152;36.614;2022-07-03T13:01:31;99510.31;;;29.13;39.53
58056;BME280;53159;55.152;36.614;2022-07-03T13:04:05;99495.66;;;29.04;40.34
58056;BME280;53159;55.152;36.614;2022-07-03T13:06:36;99496.53;;;29.05;40.95
58056;BME280;53159;55.152;36.614;2022-07-03T13:09:04;99502.97;;;29.01;40.14
58056;BME280;53159;55.152;36.614;2022-07-03T13:11:39;99491.19;;;29.05;39.17
58056;BME280;53159;55.152;36.614;2022-07-03T13:14:16;99489.91;;;29.12;39.41
58056;BME280;53159;55.152;36.614;2022-07-03T13:16:46;99491.13;;;29.06;39.84
58056;BME280;53159;55.152;36.614;2022-07-03T13:19:17;99489.69;;;28.83;39.50
58056;BME280;53159;55.152;36.614;2022-07-03T13:21:46;99496.59;;;28.87;40.52
58056;BME280;53159;55.152;36.614;2022-07-03T13:24:15;99492.44;;;28.82;38.45
58056;BME280;53159;55.152;36.614;2022-07-03T13:26:43;99489.91;;;28.96;39.84
58056;BME280;53159;55.152;36.614;2022-07-03T13:29:10;99483.44;;;29.00;40.78
58056;BME280;53159;55.152;36.614;2022-07-03T13:31:37;99483.88;;;29.08;41.02
58056;BME280;53159;55.152;36.614;2022-07-03T13:34:05;99486.09;;;29.00;39.67
58056;BME280;53159;55.152;36.614;2022-07-03T13:36:33;99486.25;;;28.97;39.26
58056;BME280;53159;55.152;36.614;2022-07-03T13:39:00;99487.66;;;29.04;41.04
58056;BME280;53159;55.152;36.614;2022-07-03T13:41:28;99485.16;;;29.01;38.99
58056;BME280;53159;55.152;36.614;2022-07-03T13:43:54;99484.59;;;29.12;40.24
58056;BME280;53159;55.152;36.614;2022-07-03T13:46:22;99481.59;;;29.01;37.86
58056;BME280;53159;55.152;36.614;2022-07-03T13:48:51;99482.41;;;29.03;38.15
58056;BME280;53159;55.152;36.614;2022-07-03T13:51:20;99479.81;;;29.01;37.38
58056;BME280;53159;55.152;36.614;2022-07-03T13:53:48;99483.88;;;29.08;38.22
58056;BME280;53159;55.152;36.614;2022-07-03T13:56:16;99480.50;;;29.05;38.18
58056;BME280;53159;55.152;36.614;2022-07-03T13:58:43;99487.50;;;29.07;38.80
58056;BME280;53159;55.152;36.614;2022-07-03T14:01:10;99477.84;;;29.05;38.61
58056;BME280;53159;55.152;36.614;2022-07-03T14:03:37;99476.38;;;29.15;39.54
58056;BME280;53159;55.152;36.614;2022-07-03T14:06:04;99472.56;;;29.19;38.83
58056;BME280;53159;55.152;36.614;2022-07-03T14:08:31;99475.59;;;29.13;37.37
58056;BME280;53159;55.152;36.614;2022-07-03T14:10:59;99479.56;;;29.06;37.84
58056;BME280;53159;55.152;36.614;2022-07-03T14:13:25;99480.56;;;29.03;38.00
58056;BME280;53159;55.152;36.614;2022-07-03T14:15:53;99482.06;;;29.09;38.13
58056;BME280;53159;55.152;36.614;2022-07-03T14:18:21;99476.97;;;29.04;38.52